createdAt,value
2019-03-06T00:00:57.095Z,99.99
2019-03-06T00:01:56.896Z,99.99
2019-03-06T00:02:56.645Z,99.99
2019-03-06T00:03:56.887Z,99.99
2019-03-06T00:04:56.841Z,99.99
2019-03-06T00:05:56.841Z,99.99
2019-03-06T00:06:56.591Z,99.99
2019-03-06T00:07:56.582Z,99.99
2019-03-06T00:08:56.814Z,99.99
2019-03-06T00:09:56.840Z,99.99
2019-03-06T00:10:56.856Z,99.99
2019-03-06T00:11:56.836Z,99.99
2019-03-06T00:12:56.786Z,99.99
2019-03-06T00:13:56.783Z,99.99
2019-03-06T00:14:56.772Z,99.99
2019-03-06T00:15:56.500Z,99.99
2019-03-06T00:16:56.749Z,99.99
2019-03-06T00:17:56.490Z,99.99
2019-03-06T00:18:56.743Z,99.99
2019-03-06T00:19:56.723Z,99.99
2019-03-06T00:20:56.459Z,99.99
2019-03-06T00:21:56.718Z,99.99
2019-03-06T00:22:56.705Z,99.99
2019-03-06T00:23:56.449Z,99.99
2019-03-06T00:24:56.689Z,99.99
2019-03-06T00:25:56.707Z,99.99
2019-03-06T00:26:56.489Z,99.99
2019-03-06T00:27:56.399Z,99.99
2019-03-06T00:28:56.655Z,99.99
2019-03-06T00:29:56.386Z,99.99
2019-03-06T00:30:56.621Z,99.99
2019-03-06T00:31:56.629Z,99.99
2019-03-06T00:32:56.374Z,99.99
2019-03-06T00:33:56.353Z,99.99
2019-03-06T00:34:56.341Z,99.99
2019-03-06T00:35:56.755Z,99.99
2019-03-06T00:36:56.326Z,99.99
2019-03-06T00:37:56.596Z,99.99
2019-03-06T00:38:56.593Z,99.99
2019-03-06T00:39:56.558Z,99.99
2019-03-06T00:40:56.541Z,99.99
2019-03-06T00:41:56.545Z,99.99
2019-03-06T00:42:56.275Z,99.99
2019-03-06T00:43:56.279Z,99.99
2019-03-06T00:44:56.653Z,99.99
2019-03-06T00:45:56.497Z,99.99
2019-03-06T00:46:56.501Z,99.99
2019-03-06T00:47:56.501Z,99.99
2019-03-06T00:48:56.475Z,99.99
2019-03-06T00:49:56.212Z,99.99
2019-03-06T00:50:56.211Z,99.99
2019-03-06T00:51:56.453Z,99.99
2019-03-06T00:52:56.436Z,99.99
2019-03-06T00:53:56.662Z,99.99
2019-03-06T00:54:56.426Z,99.99
2019-03-06T00:55:56.413Z,99.99
2019-03-06T00:56:56.420Z,99.99
2019-03-06T00:57:56.157Z,99.99
2019-03-06T00:58:56.397Z,99.99
2019-03-06T00:59:56.386Z,99.99
2019-03-06T01:00:56.121Z,99.99
2019-03-06T01:01:56.375Z,99.99
2019-03-06T01:02:56.398Z,99.99
2019-03-06T01:03:56.360Z,99.99
2019-03-06T01:04:56.094Z,99.99
2019-03-06T01:05:56.085Z,99.99
2019-03-06T01:06:56.342Z,99.99
2019-03-06T01:07:56.091Z,99.99
2019-03-06T01:08:56.314Z,99.99
2019-03-06T01:09:56.308Z,99.99
2019-03-06T01:10:56.039Z,99.99
2019-03-06T01:11:56.290Z,99.99
2019-03-06T01:12:56.267Z,99.99
2019-03-06T01:13:56.004Z,99.99
2019-03-06T01:14:56.013Z,99.99
2019-03-06T01:15:56.256Z,99.99
2019-03-06T01:16:55.999Z,99.99
2019-03-06T01:17:56.016Z,99.99
2019-03-06T01:18:55.978Z,99.99
2019-03-06T01:19:56.375Z,99.99
2019-03-06T01:20:56.213Z,99.99
2019-03-06T01:21:56.215Z,99.99
2019-03-06T01:22:55.946Z,99.99
2019-03-06T01:23:56.190Z,99.99
2019-03-06T01:24:55.946Z,99.99
2019-03-06T01:25:56.171Z,99.99
2019-03-06T01:26:56.166Z,99.99
2019-03-06T01:27:56.153Z,99.99
2019-03-06T01:28:56.305Z,99.99
2019-03-06T01:29:56.134Z,99.99
2019-03-06T01:30:55.875Z,99.99
2019-03-06T01:31:55.869Z,99.99
2019-03-06T01:32:58.049Z,99.99
2019-03-06T01:33:56.100Z,99.99
2019-03-06T01:34:55.845Z,99.99
2019-03-06T01:35:56.096Z,99.99
2019-03-06T01:36:56.096Z,99.99
2019-03-06T01:37:56.231Z,99.99
2019-03-06T01:38:56.062Z,99.99
2019-03-06T01:39:56.061Z,99.99
2019-03-06T01:40:55.811Z,99.99
2019-03-06T01:41:55.788Z,99.99
2019-03-06T01:42:56.030Z,99.99
2019-03-06T01:43:56.021Z,99.99
2019-03-06T01:44:55.763Z,99.99
2019-03-06T01:45:55.758Z,99.99
2019-03-06T01:46:55.922Z,99.99
2019-03-06T01:47:55.995Z,99.99
2019-03-06T01:48:55.993Z,99.99
2019-03-06T01:49:55.720Z,99.99
2019-03-06T01:50:55.717Z,99.99
2019-03-06T01:51:55.706Z,99.99
2019-03-06T01:52:55.963Z,99.99
2019-03-06T01:53:55.690Z,99.99
2019-03-06T01:54:55.933Z,99.99
2019-03-06T01:55:56.218Z,99.99
2019-03-06T01:56:55.693Z,99.99
2019-03-06T01:57:55.904Z,99.99
2019-03-06T01:58:55.645Z,99.99
2019-03-06T01:59:55.882Z,99.99
2019-03-06T02:00:55.883Z,99.99
2019-03-06T02:01:55.624Z,99.99
2019-03-06T02:02:55.619Z,99.99
2019-03-06T02:03:55.848Z,99.99
2019-03-06T02:04:55.593Z,99.99
2019-03-06T02:05:55.832Z,99.99
2019-03-06T02:06:55.575Z,99.99
2019-03-06T02:07:55.811Z,99.99
2019-03-06T02:08:55.560Z,99.99
2019-03-06T02:09:55.796Z,99.99
2019-03-06T02:10:55.795Z,99.99
2019-03-06T02:11:55.782Z,99.99
2019-03-06T02:12:55.913Z,99.99
2019-03-06T02:13:55.761Z,99.99
2019-03-06T02:14:55.512Z,99.99
2019-03-06T02:15:55.750Z,99.99
2019-03-06T02:16:55.790Z,99.99
2019-03-06T02:17:55.750Z,99.99
2019-03-06T02:18:55.725Z,99.99
2019-03-06T02:19:55.705Z,99.99
2019-03-06T02:20:55.719Z,99.99
2019-03-06T02:21:55.540Z,99.99
2019-03-06T02:22:55.440Z,99.99
2019-03-06T02:23:55.699Z,99.99
2019-03-06T02:24:55.676Z,99.99
2019-03-06T02:25:55.415Z,99.99
2019-03-06T02:26:55.653Z,99.99
2019-03-06T02:27:55.650Z,99.99
2019-03-06T02:28:55.645Z,99.99
2019-03-06T02:29:55.630Z,99.99
2019-03-06T02:30:55.919Z,99.99
2019-03-06T02:31:55.376Z,99.99
2019-03-06T02:32:55.630Z,99.99
2019-03-06T02:33:55.597Z,99.99
2019-03-06T02:34:55.587Z,99.99
2019-03-06T02:35:55.574Z,99.99
2019-03-06T02:36:55.322Z,99.99
2019-03-06T02:37:55.572Z,99.99
2019-03-06T02:38:55.605Z,99.99
2019-03-06T02:39:55.533Z,99.99
2019-03-06T02:40:55.543Z,99.99
2019-03-06T02:41:55.525Z,99.99
2019-03-06T02:42:55.516Z,99.99
2019-03-06T02:43:55.507Z,99.99
2019-03-06T02:44:55.503Z,99.99
2019-03-06T02:45:55.499Z,99.99
2019-03-06T02:46:55.474Z,99.99
2019-03-06T02:47:55.789Z,99.99
2019-03-06T02:48:55.457Z,99.99
2019-03-06T02:49:55.200Z,99.99
2019-03-06T02:50:55.207Z,99.99
2019-03-06T02:51:55.208Z,99.99
2019-03-06T02:52:55.422Z,99.99
2019-03-06T02:53:55.430Z,99.99
2019-03-06T02:54:55.410Z,99.99
2019-03-06T02:55:55.338Z,99.99
2019-03-06T02:56:55.400Z,99.99
2019-03-06T02:57:55.139Z,99.99
2019-03-06T02:58:55.386Z,99.99
2019-03-06T02:59:55.369Z,99.99
2019-03-06T03:00:55.119Z,99.99
2019-03-06T03:01:55.347Z,99.99
2019-03-06T03:02:55.094Z,99.99
2019-03-06T03:03:55.346Z,99.99
2019-03-06T03:04:55.503Z,99.99
2019-03-06T03:05:55.314Z,99.99
2019-03-06T03:06:55.307Z,99.99
2019-03-06T03:07:55.300Z,99.99
2019-03-06T03:08:55.288Z,99.99
2019-03-06T03:09:55.291Z,99.99
2019-03-06T03:10:55.292Z,99.99
2019-03-06T03:11:55.279Z,99.99
2019-03-06T03:12:55.274Z,99.99
2019-03-06T03:13:55.524Z,99.99
2019-03-06T03:14:55.237Z,99.99
2019-03-06T03:15:54.980Z,99.99
2019-03-06T03:16:55.217Z,99.99
2019-03-06T03:17:55.206Z,99.99
2019-03-06T03:18:55.200Z,99.99
2019-03-06T03:19:55.045Z,99.99
2019-03-06T03:20:55.191Z,99.99
2019-03-06T03:21:55.401Z,99.99
2019-03-06T03:22:55.158Z,99.99
2019-03-06T03:23:54.906Z,99.99
2019-03-06T03:24:54.897Z,99.99
2019-03-06T03:25:55.133Z,99.99
2019-03-06T03:26:55.135Z,99.99
2019-03-06T03:27:54.890Z,99.99
2019-03-06T03:28:55.109Z,99.99
2019-03-06T03:29:54.862Z,99.99
2019-03-06T03:30:55.104Z,99.99
2019-03-06T03:31:55.088Z,99.99
2019-03-06T03:32:54.834Z,99.99
2019-03-06T03:33:55.107Z,99.99
2019-03-06T03:34:55.068Z,99.99
2019-03-06T03:35:55.050Z,99.99
2019-03-06T03:36:55.040Z,99.99
2019-03-06T03:37:55.039Z,99.99
2019-03-06T03:38:55.240Z,99.99
2019-03-06T03:39:54.782Z,99.99
2019-03-06T03:40:55.014Z,99.99
2019-03-06T03:41:54.756Z,99.99
2019-03-06T03:42:55.003Z,99.99
2019-03-06T03:43:55.013Z,99.99
2019-03-06T03:44:54.966Z,99.99
2019-03-06T03:45:54.960Z,99.99
2019-03-06T03:46:54.734Z,99.99
2019-03-06T03:47:54.966Z,99.99
2019-03-06T03:48:54.938Z,99.99
2019-03-06T03:49:54.933Z,99.99
2019-03-06T03:50:54.672Z,99.99
2019-03-06T03:51:54.669Z,99.99
2019-03-06T03:52:54.646Z,99.99
2019-03-06T03:53:54.889Z,99.99
2019-03-06T03:54:54.638Z,99.99
2019-03-06T03:55:55.103Z,99.99
2019-03-06T03:56:54.880Z,99.99
2019-03-06T03:57:54.625Z,99.99
2019-03-06T03:58:54.857Z,99.99
2019-03-06T03:59:55.851Z,99.99
2019-03-06T04:00:54.831Z,99.99
2019-03-06T04:01:54.852Z,99.99
2019-03-06T04:02:54.554Z,99.99
2019-03-06T04:03:54.849Z,99.99
2019-03-06T04:04:54.832Z,99.99
2019-03-06T04:05:54.789Z,99.99
2019-03-06T04:06:54.785Z,99.99
2019-03-06T04:07:54.791Z,99.99
2019-03-06T04:08:54.781Z,99.99
2019-03-06T04:09:54.775Z,99.99
2019-03-06T04:10:54.491Z,99.99
2019-03-06T04:11:54.752Z,99.99
2019-03-06T04:12:55.010Z,99.99
2019-03-06T04:13:54.715Z,99.99
2019-03-06T04:14:54.702Z,99.99
2019-03-06T04:15:54.690Z,99.99
2019-03-06T04:16:54.694Z,99.99
2019-03-06T04:17:54.689Z,99.99
2019-03-06T04:18:54.657Z,99.99
2019-03-06T04:19:54.411Z,99.99
2019-03-06T04:20:54.558Z,99.99
2019-03-06T04:21:54.650Z,99.99
2019-03-06T04:22:54.643Z,99.99
2019-03-06T04:23:54.628Z,99.99
2019-03-06T04:24:54.615Z,99.99
2019-03-06T04:25:54.346Z,99.99
2019-03-06T04:26:54.609Z,99.99
2019-03-06T04:27:54.578Z,99.99
2019-03-06T04:28:54.567Z,99.99
2019-03-06T04:29:54.895Z,99.99
2019-03-06T04:30:54.554Z,99.99
2019-03-06T04:31:54.540Z,99.99
2019-03-06T04:32:54.535Z,99.99
2019-03-06T04:33:54.578Z,99.99
2019-03-06T04:34:54.506Z,99.99
2019-03-06T04:35:54.507Z,99.99
2019-03-06T04:36:54.504Z,99.99
2019-03-06T04:37:54.324Z,99.99
2019-03-06T04:38:54.531Z,99.99
2019-03-06T04:39:54.465Z,99.99
2019-03-06T04:40:54.490Z,99.99
2019-03-06T04:41:54.452Z,99.99
2019-03-06T04:42:54.437Z,99.99
2019-03-06T04:43:54.434Z,99.99
2019-03-06T04:44:55.382Z,99.99
2019-03-06T04:45:54.413Z,99.99
2019-03-06T04:46:54.595Z,99.99
2019-03-06T04:47:54.429Z,99.99
2019-03-06T04:48:54.379Z,99.99
2019-03-06T04:49:55.435Z,99.99
2019-03-06T04:50:54.353Z,99.99
2019-03-06T04:51:54.101Z,99.99
2019-03-06T04:52:54.093Z,99.99
2019-03-06T04:53:54.331Z,99.99
2019-03-06T04:54:54.082Z,99.99
2019-03-06T04:55:54.547Z,99.99
2019-03-06T04:56:54.064Z,99.99
2019-03-06T04:57:54.292Z,99.99
2019-03-06T04:58:54.038Z,99.99
2019-03-06T04:59:54.281Z,99.99
2019-03-06T05:00:54.280Z,99.99
2019-03-06T05:01:54.290Z,99.99
2019-03-06T05:02:54.250Z,99.99
2019-03-06T05:03:54.242Z,99.99
2019-03-06T05:04:54.448Z,99.99
2019-03-06T05:05:54.232Z,99.99
2019-03-06T05:06:54.225Z,99.99
2019-03-06T05:07:53.963Z,99.99
2019-03-06T05:08:54.189Z,99.99
2019-03-06T05:09:53.945Z,99.99
2019-03-06T05:10:54.211Z,99.99
2019-03-06T05:11:54.199Z,99.99
2019-03-06T05:12:54.352Z,99.99
2019-03-06T05:13:54.142Z,99.99
2019-03-06T05:14:53.893Z,99.99
2019-03-06T05:15:53.881Z,99.99
2019-03-06T05:16:54.140Z,99.99
2019-03-06T05:17:54.134Z,99.99
2019-03-06T05:18:54.117Z,99.99
2019-03-06T05:19:54.102Z,99.99
2019-03-06T05:20:53.830Z,99.99
2019-03-06T05:21:54.059Z,99.99
2019-03-06T05:22:53.829Z,99.99
2019-03-06T05:23:53.809Z,99.99
2019-03-06T05:24:54.062Z,99.99
2019-03-06T05:25:54.055Z,99.99
2019-03-06T05:26:54.085Z,99.99
2019-03-06T05:27:53.772Z,99.99
2019-03-06T05:28:54.002Z,99.99
2019-03-06T05:29:53.747Z,99.99
2019-03-06T05:30:54.033Z,99.99
2019-03-06T05:31:54.001Z,99.99
2019-03-06T05:32:53.973Z,99.99
2019-03-06T05:33:53.965Z,99.99
2019-03-06T05:34:53.949Z,99.99
2019-03-06T05:35:53.943Z,99.99
2019-03-06T05:36:53.698Z,99.99
2019-03-06T05:37:53.950Z,99.99
2019-03-06T05:38:53.681Z,99.99
2019-03-06T05:39:53.912Z,99.99
2019-03-06T05:40:53.916Z,99.99
2019-03-06T05:41:53.907Z,99.99
2019-03-06T05:42:53.633Z,99.99
2019-03-06T05:43:53.863Z,99.99
2019-03-06T05:44:53.857Z,99.99
2019-03-06T05:45:53.594Z,99.99
2019-03-06T05:46:53.845Z,99.99
2019-03-06T05:47:53.925Z,99.99
2019-03-06T05:48:53.577Z,99.99
2019-03-06T05:49:53.816Z,99.99
2019-03-06T05:50:53.551Z,99.99
2019-03-06T05:51:53.543Z,99.99
2019-03-06T05:52:53.806Z,99.99
2019-03-06T05:53:53.803Z,99.99
2019-03-06T05:54:53.808Z,99.99
2019-03-06T05:55:53.796Z,99.99
2019-03-06T05:56:53.578Z,99.99
2019-03-06T05:57:53.745Z,99.99
2019-03-06T05:58:53.471Z,99.99
2019-03-06T05:59:53.717Z,99.99
2019-03-06T06:00:53.456Z,99.99
2019-03-06T06:01:53.692Z,99.99
2019-03-06T06:02:53.712Z,99.99
2019-03-06T06:03:53.692Z,99.99
2019-03-06T06:04:53.416Z,99.99
2019-03-06T06:05:53.568Z,99.99
2019-03-06T06:06:53.663Z,99.99
2019-03-06T06:07:53.639Z,99.99
2019-03-06T06:08:53.388Z,99.99
2019-03-06T06:09:53.620Z,99.99
2019-03-06T06:10:53.360Z,99.99
2019-03-06T06:11:53.601Z,99.99
2019-03-06T06:12:53.399Z,99.99
2019-03-06T06:13:53.336Z,99.99
2019-03-06T06:14:53.789Z,99.99
2019-03-06T06:15:53.563Z,99.99
2019-03-06T06:16:53.304Z,99.99
2019-03-06T06:17:53.549Z,99.99
2019-03-06T06:18:53.292Z,99.99
2019-03-06T06:19:53.279Z,99.99
2019-03-06T06:20:53.293Z,99.99
2019-03-06T06:21:53.264Z,99.99
2019-03-06T06:22:53.264Z,99.99
2019-03-06T06:23:53.491Z,99.99
2019-03-06T06:24:53.223Z,99.99
2019-03-06T06:25:53.470Z,99.99
2019-03-06T06:26:53.477Z,99.99
2019-03-06T06:27:53.224Z,99.99
2019-03-06T06:28:53.440Z,99.99
2019-03-06T06:29:53.183Z,99.99
2019-03-06T06:30:53.430Z,99.99
2019-03-06T06:31:53.441Z,99.99
2019-03-06T06:32:53.419Z,99.99
2019-03-06T06:33:53.401Z,99.99
2019-03-06T06:34:53.144Z,99.99
2019-03-06T06:35:53.377Z,99.99
2019-03-06T06:36:53.154Z,99.99
2019-03-06T06:37:53.174Z,99.99
2019-03-06T06:38:53.100Z,99.99
2019-03-06T06:39:53.104Z,99.99
2019-03-06T06:40:53.517Z,99.99
2019-03-06T06:41:53.341Z,99.99
2019-03-06T06:42:53.316Z,99.99
2019-03-06T06:43:53.302Z,99.99
2019-03-06T06:44:53.295Z,99.99
2019-03-06T06:45:53.292Z,99.99
2019-03-06T06:46:53.036Z,99.99
2019-03-06T06:47:53.020Z,99.99
2019-03-06T06:48:53.027Z,99.99
2019-03-06T06:49:53.440Z,99.99
2019-03-06T06:51:01.682Z,99.99
2019-03-06T06:51:53.006Z,99.99
2019-03-06T06:52:52.983Z,99.99
2019-03-06T06:53:52.966Z,99.99
2019-03-06T06:54:52.960Z,99.99
2019-03-06T06:55:52.959Z,99.99
2019-03-06T06:56:53.209Z,99.99
2019-03-06T06:57:53.182Z,99.99
2019-03-06T06:58:53.163Z,99.99
2019-03-06T06:59:53.193Z,99.99
2019-03-06T07:00:52.906Z,99.99
2019-03-06T07:01:53.215Z,99.99
2019-03-06T07:02:52.897Z,99.99
2019-03-06T07:03:53.122Z,99.99
2019-03-06T07:04:53.118Z,99.99
2019-03-06T07:05:52.866Z,99.99
2019-03-06T07:06:53.919Z,99.99
2019-03-06T07:07:53.238Z,99.99
2019-03-06T07:08:53.108Z,99.99
2019-03-06T07:09:53.078Z,99.99
2019-03-06T07:10:52.836Z,99.99
2019-03-06T07:11:52.820Z,99.99
2019-03-06T07:12:53.048Z,99.99
2019-03-06T07:13:53.051Z,99.99
2019-03-06T07:14:53.059Z,99.99
2019-03-06T07:15:53.034Z,99.99
2019-03-06T07:16:53.198Z,99.99
2019-03-06T07:17:52.763Z,99.99
2019-03-06T07:18:53.001Z,99.99
2019-03-06T07:19:52.756Z,99.99
2019-03-06T07:20:52.987Z,99.99
2019-03-06T07:21:52.977Z,99.99
2019-03-06T07:22:52.983Z,99.99
2019-03-06T07:23:52.719Z,99.99
2019-03-06T07:24:52.711Z,99.99
2019-03-06T07:25:53.084Z,99.99
2019-03-06T07:26:52.689Z,99.99
2019-03-06T07:27:52.940Z,99.99
2019-03-06T07:28:52.921Z,99.99
2019-03-06T07:29:52.914Z,99.99
2019-03-06T07:30:52.906Z,99.99
2019-03-06T07:31:52.904Z,99.99
2019-03-06T07:32:52.895Z,99.99
2019-03-06T07:33:52.879Z,99.99
2019-03-06T07:34:53.025Z,99.99
2019-03-06T07:35:52.883Z,99.99
2019-03-06T07:36:52.865Z,99.99
2019-03-06T07:37:52.607Z,99.99
2019-03-06T07:38:52.862Z,97.03
2019-03-06T07:39:52.603Z,92.03
2019-03-06T07:40:52.840Z,88.65
2019-03-06T07:41:52.833Z,86.6
2019-03-06T07:42:52.827Z,83.21
2019-03-06T07:43:52.825Z,81.02
2019-03-06T07:44:52.826Z,79.35
2019-03-06T07:45:52.568Z,78.01
2019-03-06T07:46:52.579Z,77.38
2019-03-06T07:47:52.825Z,76.04
2019-03-06T07:48:52.810Z,74.8
2019-03-06T07:49:52.556Z,75.18
2019-03-06T07:50:52.806Z,75.66
2019-03-06T07:51:52.558Z,75.37
2019-03-06T07:52:52.552Z,74.61
2019-03-06T07:53:53.084Z,73.66
2019-03-06T07:54:52.793Z,73.03
2019-03-06T07:55:52.545Z,72.17
2019-03-06T07:56:52.802Z,71.5
2019-03-06T07:57:52.783Z,70.67
2019-03-06T07:58:52.534Z,69.82
2019-03-06T07:59:52.812Z,68.38
2019-03-06T08:00:52.785Z,67.55
2019-03-06T08:01:52.780Z,66.5
2019-03-06T08:02:53.004Z,65.87
2019-03-06T08:03:52.787Z,64.91
2019-03-06T08:04:52.782Z,65.39
2019-03-06T08:05:52.538Z,65.93
2019-03-06T08:06:52.801Z,66.79
2019-03-06T08:07:52.782Z,66.89
2019-03-06T08:08:52.775Z,66.95
2019-03-06T08:09:52.775Z,67.52
2019-03-06T08:10:52.783Z,67.36
2019-03-06T08:11:52.800Z,65.55
2019-03-06T08:12:52.776Z,64.12
2019-03-06T08:13:52.789Z,63.1
2019-03-06T08:14:52.779Z,62.14
2019-03-06T08:15:52.787Z,61.51
2019-03-06T08:16:52.533Z,60.83
2019-03-06T08:17:52.808Z,60.45
2019-03-06T08:18:52.787Z,59.97
2019-03-06T08:19:52.780Z,60.77
2019-03-06T08:20:53.025Z,59.62
2019-03-06T08:21:52.536Z,60.45
2019-03-06T08:22:52.527Z,61.6
2019-03-06T08:23:52.533Z,63.16
2019-03-06T08:24:52.779Z,65.61
2019-03-06T08:25:52.782Z,67.77
2019-03-06T08:26:52.786Z,70.42
2019-03-06T08:27:52.780Z,71.81
2019-03-06T08:28:52.536Z,72.76
2019-03-06T08:29:53.019Z,73.49
2019-03-06T08:30:52.536Z,74.73
2019-03-06T08:31:52.796Z,75.36
2019-03-06T08:32:52.781Z,76.31
2019-03-06T08:33:52.786Z,76.88
2019-03-06T08:34:52.775Z,77.03
2019-03-06T08:35:52.785Z,77.51
2019-03-06T08:36:52.535Z,77.8
2019-03-06T08:37:52.784Z,78.27
2019-03-06T08:38:53.067Z,78.37
2019-03-06T08:39:52.520Z,78.17
2019-03-06T08:40:52.585Z,78.46
2019-03-06T08:41:52.778Z,76.94
2019-03-06T08:42:52.536Z,77.7
2019-03-06T08:43:52.867Z,78.37
2019-03-06T08:44:52.761Z,79.13
2019-03-06T08:45:52.764Z,79.51
2019-03-06T08:46:52.758Z,79.41
2019-03-06T08:47:54.415Z,79.99
2019-03-06T08:48:52.860Z,79.41
2019-03-06T08:49:52.505Z,79.13
2019-03-06T08:50:52.753Z,79.22
2019-03-06T08:51:52.833Z,79.7
2019-03-06T08:52:52.611Z,80.65
2019-03-06T08:53:52.521Z,81.79
2019-03-06T08:54:52.767Z,81.41
2019-03-06T08:55:52.774Z,81.41
2019-03-06T08:56:53.048Z,80.65
2019-03-06T08:57:52.877Z,80.36
2019-03-06T08:58:52.756Z,80.94
2019-03-06T08:59:52.711Z,80.94
2019-03-06T09:00:52.794Z,80.27
2019-03-06T09:02:02.412Z,80.27
2019-03-06T09:02:52.448Z,79.99
2019-03-06T09:03:52.453Z,79.7
2019-03-06T09:04:52.738Z,79.03
2019-03-06T09:05:52.927Z,79.41
2019-03-06T09:06:52.448Z,80.31
2019-03-06T09:07:52.682Z,80.79
2019-03-06T09:08:52.431Z,80.79
2019-03-06T09:09:52.420Z,80.5
2019-03-06T09:10:52.679Z,80.02
2019-03-06T09:11:52.696Z,79.46
2019-03-06T09:12:52.700Z,79.83
2019-03-06T09:13:52.697Z,78.98
2019-03-06T09:14:52.615Z,78.12
2019-03-06T09:15:52.661Z,78.78
2019-03-06T09:16:52.693Z,79.07
2019-03-06T09:17:52.671Z,79.17
2019-03-06T09:18:52.760Z,78.88
2019-03-06T09:19:52.735Z,78.88
2019-03-06T09:20:52.619Z,79.21
2019-03-06T09:21:52.621Z,78.83
2019-03-06T09:22:52.619Z,79.11
2019-03-06T09:23:52.861Z,77.97
2019-03-06T09:24:52.618Z,77.78
2019-03-06T09:25:52.599Z,77.3
2019-03-06T09:26:52.604Z,78.25
2019-03-06T09:27:52.600Z,77.78
2019-03-06T09:29:00.616Z,77.49
2019-03-06T09:29:52.591Z,77.3
2019-03-06T09:30:52.598Z,77.78
2019-03-06T09:31:52.576Z,77.69
2019-03-06T09:32:52.883Z,77.82
2019-03-06T09:33:52.324Z,76.96
2019-03-06T09:34:52.568Z,77.15
2019-03-06T09:35:52.563Z,76.1
2019-03-06T09:36:52.564Z,75.24
2019-03-06T09:37:52.563Z,75.34
2019-03-06T09:38:52.565Z,74.48
2019-03-06T09:39:52.557Z,74.29
2019-03-06T09:40:52.557Z,74.29
2019-03-06T09:41:52.566Z,74.38
2019-03-06T09:42:52.545Z,75.05
2019-03-06T09:43:52.566Z,74.57
2019-03-06T09:44:52.533Z,74.38
2019-03-06T09:45:52.529Z,74.01
2019-03-06T09:46:52.599Z,74.38
2019-03-06T09:47:52.523Z,74.01
2019-03-06T09:48:52.525Z,74.01
2019-03-06T09:49:52.524Z,74.48
2019-03-06T09:50:52.527Z,74.38
2019-03-06T09:51:52.268Z,74.19
2019-03-06T09:52:52.525Z,74.86
2019-03-06T09:53:52.503Z,75.05
2019-03-06T09:54:52.502Z,75.24
2019-03-06T09:55:52.546Z,75.24
2019-03-06T09:56:52.507Z,75.24
2019-03-06T09:57:52.266Z,75.43
2019-03-06T09:58:52.423Z,75.15
2019-03-06T09:59:52.485Z,75.15
2019-03-06T10:00:52.496Z,75.15
2019-03-06T10:01:52.485Z,75.53
2019-03-06T10:02:52.474Z,75.34
2019-03-06T10:03:52.297Z,75.91
2019-03-06T10:04:52.235Z,75.53
2019-03-06T10:05:52.473Z,75.62
2019-03-06T10:06:52.219Z,75.28
2019-03-06T10:07:52.716Z,75.28
2019-03-06T10:08:52.487Z,74.38
2019-03-06T10:10:01.435Z,74.67
2019-03-06T10:10:59.963Z,75.47
2019-03-06T10:11:52.201Z,74.8
2019-03-06T10:12:52.457Z,75.47
2019-03-06T10:13:54.551Z,74.9
2019-03-06T10:14:52.441Z,74.42
2019-03-06T10:15:52.439Z,74.52
2019-03-06T10:16:52.451Z,74.71
2019-03-06T10:17:52.446Z,74.23
2019-03-06T10:18:52.426Z,74.23
2019-03-06T10:19:52.172Z,74.52
2019-03-06T10:20:52.465Z,73.28
2019-03-06T10:21:52.182Z,73.08
2019-03-06T10:22:54.730Z,72.99
2019-03-06T10:23:52.390Z,72.42
2019-03-06T10:24:52.175Z,72.61
2019-03-06T10:25:52.414Z,72.13
2019-03-06T10:26:52.398Z,71.41
2019-03-06T10:27:52.420Z,71.12
2019-03-06T10:30:10.549Z,71.41
2019-03-06T10:31:10.280Z,71.12
2019-03-06T10:32:10.548Z,70.36
2019-03-06T10:33:10.271Z,69.21
2019-03-06T10:34:10.543Z,68.92
2019-03-06T10:35:10.504Z,67.97
2019-03-06T10:36:10.510Z,68
2019-03-06T10:37:10.801Z,67.91
2019-03-06T10:38:16.639Z,67.62
2019-03-06T10:39:10.270Z,67.62
2019-03-06T10:40:10.497Z,67.33
2019-03-06T10:41:10.507Z,66.85
2019-03-06T10:42:10.748Z,66.66
2019-03-06T10:43:10.505Z,66.47
2019-03-06T10:44:10.513Z,66.95
2019-03-06T10:45:10.558Z,66.95
2019-03-06T10:46:10.484Z,67.52
2019-03-06T10:47:10.714Z,66.38
2019-03-06T10:48:10.474Z,66.56
2019-03-06T10:49:10.485Z,66.66
2019-03-06T10:50:10.481Z,66.28
2019-03-06T10:51:10.501Z,65.61
2019-03-06T10:52:10.437Z,65.9
2019-03-06T10:53:10.475Z,66.03
2019-03-06T10:54:10.245Z,65.64
2019-03-06T10:55:10.458Z,65.71
2019-03-06T10:56:10.214Z,66.31
2019-03-06T10:57:11.869Z,66.5
2019-03-06T10:58:10.228Z,65.93
2019-03-06T10:59:10.477Z,65.93
2019-03-06T11:00:10.468Z,65.93
2019-03-06T11:01:10.462Z,65.36
2019-03-06T11:02:10.516Z,65.36
2019-03-06T11:03:10.473Z,66.13
2019-03-06T11:04:10.448Z,65.07
2019-03-06T11:05:10.440Z,64.22
2019-03-06T11:06:10.205Z,64.22
2019-03-06T11:07:10.735Z,64.59
2019-03-06T11:08:10.458Z,65.3
2019-03-06T11:09:10.466Z,64.05
2019-03-06T11:10:10.418Z,64.62
2019-03-06T11:11:10.455Z,64.34
2019-03-06T11:12:10.481Z,63.19
2019-03-06T11:13:11.107Z,63.1
2019-03-06T11:14:10.451Z,61.76
2019-03-06T11:15:10.442Z,61.95
2019-03-06T11:16:10.405Z,61.95
2019-03-06T11:17:10.652Z,61.85
2019-03-06T11:18:10.168Z,61.19
2019-03-06T11:19:10.397Z,60.8
2019-03-06T11:20:10.400Z,60.9
2019-03-06T11:21:10.400Z,59.84
2019-03-06T11:22:10.396Z,58.8
2019-03-06T11:23:10.395Z,58.8
2019-03-06T11:24:10.389Z,57.84
2019-03-06T11:25:10.406Z,58.8
2019-03-06T11:26:10.397Z,58.7
2019-03-06T11:27:10.393Z,58.61
2019-03-06T11:28:10.381Z,58.41
2019-03-06T11:29:10.393Z,57.26
2019-03-06T11:30:10.134Z,57.55
2019-03-06T11:31:10.601Z,57.17
2019-03-06T11:32:10.388Z,56.69
2019-03-06T11:33:10.405Z,56.79
2019-03-06T11:34:10.384Z,56.69
2019-03-06T11:35:10.142Z,56.79
2019-03-06T11:36:10.132Z,55.07
2019-03-06T11:37:10.385Z,55.35
2019-03-06T11:38:10.129Z,56.21
2019-03-06T11:39:10.643Z,56.79
2019-03-06T11:40:10.116Z,57.17
2019-03-06T11:41:10.370Z,56.69
2019-03-06T11:42:10.373Z,55.74
2019-03-06T11:43:10.354Z,56.12
2019-03-06T11:44:10.350Z,55.54
2019-03-06T11:45:10.384Z,56.5
2019-03-06T11:46:10.351Z,55.93
2019-03-06T11:47:10.591Z,55.83
2019-03-06T11:48:10.350Z,56.91
2019-03-06T11:49:10.355Z,56.43
2019-03-06T11:50:10.350Z,55.67
2019-03-06T11:51:10.107Z,55.29
2019-03-06T11:52:10.096Z,54.52
2019-03-06T11:53:10.095Z,53.97
2019-03-06T11:54:10.818Z,53.78
2019-03-06T11:55:10.572Z,52.73
2019-03-06T11:56:10.758Z,52.06
2019-03-06T11:57:10.093Z,51.32
2019-03-06T11:58:10.351Z,51.22
2019-03-06T11:59:10.330Z,51.89
2019-03-06T12:00:10.337Z,52.18
2019-03-06T12:01:10.087Z,51.51
2019-03-06T12:02:10.523Z,51.42
2019-03-06T12:03:10.328Z,51.61
2019-03-06T12:04:10.332Z,51.13
2019-03-06T12:05:10.083Z,50.36
2019-03-06T12:06:10.094Z,51.13
2019-03-06T12:07:10.350Z,51.7
2019-03-06T12:08:10.333Z,51.03
2019-03-06T12:09:10.322Z,52.28
2019-03-06T12:10:10.499Z,52.18
2019-03-06T12:11:10.078Z,51.51
2019-03-06T12:12:10.071Z,51.03
2019-03-06T12:13:10.068Z,51.03
2019-03-06T12:14:10.329Z,50.46
2019-03-06T12:15:10.313Z,50.1
2019-03-06T12:16:10.348Z,49.43
2019-03-06T12:17:10.495Z,49.14
2019-03-06T12:18:10.078Z,50
2019-03-06T12:19:10.330Z,49.05
2019-03-06T12:20:11.009Z,50
2019-03-06T12:21:10.072Z,50.2
2019-03-06T12:22:10.313Z,50.2
2019-03-06T12:23:10.327Z,49.69
2019-03-06T12:24:10.317Z,50.46
2019-03-06T12:25:10.514Z,50.07
2019-03-06T12:26:10.321Z,49.69
2019-03-06T12:27:10.321Z,50.26
2019-03-06T12:28:10.322Z,49.79
2019-03-06T12:29:10.303Z,49.98
2019-03-06T12:30:10.310Z,49.21
2019-03-06T12:31:10.299Z,48.73
2019-03-06T12:32:10.300Z,48.54
2019-03-06T12:33:10.462Z,47.87
2019-03-06T12:34:10.301Z,47.2
2019-03-06T12:35:10.304Z,46.82
2019-03-06T12:36:10.049Z,46.15
2019-03-06T12:37:10.309Z,47.11
2019-03-06T12:38:10.917Z,47.2
2019-03-06T12:39:10.294Z,47.71
2019-03-06T12:40:15.504Z,46.75
2019-03-06T12:41:10.295Z,46.55
2019-03-06T12:42:17.059Z,46.36
2019-03-06T12:43:10.300Z,46.36
2019-03-06T12:44:13.149Z,45.79
2019-03-06T12:45:10.294Z,45.79
2019-03-06T12:46:10.039Z,44.83
2019-03-06T12:47:10.992Z,44.64
2019-03-06T12:48:10.041Z,44.09
2019-03-06T12:49:10.287Z,43.51
2019-03-06T12:50:10.546Z,43.51
2019-03-06T12:51:10.040Z,43.32
2019-03-06T12:52:10.034Z,43.03
2019-03-06T12:53:10.291Z,42.65
2019-03-06T12:54:10.035Z,43.23
2019-03-06T12:55:10.035Z,43.41
2019-03-06T12:56:10.054Z,43.9